Time;durP1;ratioP1;P1;durP2;ratioP2;P2;SDS_P1;SDS_P2;PMS_P1;PMS_P2;Temp;Humidity;BMP_temperature;BMP_pressure;BME280_temperature;BME280_humidity;BME280_pressure;Samples;Min_cycle;Max_cycle;Signal;HPM_P1;HPM_P2
2022/05/08 00:00:47;;;;;;;;;21.67;21.33;;;;;34.55;22.43;101887.72;5074025;28;45457;-81
2022/05/08 00:03:12;;;;;;;;;20.00;20.00;;;;;34.13;22.79;101831.63;5073850;28;45667;-82
2022/05/08 00:05:39;;;;;;;;;21.00;19.33;;;;;34.05;22.69;101834.88;5073648;28;48192;-81
2022/05/08 00:08:04;;;;;;;;;24.33;19.67;;;;;34.17;22.79;101866.25;5073668;28;46028;-81
2022/05/08 00:10:30;;;;;;;;;19.67;18.33;;;;;34.17;23.11;101872.63;5074699;27;45544;-81
2022/05/08 00:12:55;;;;;;;;;20.67;20.00;;;;;34.14;22.59;101867.31;5075323;27;45401;-81
2022/05/08 00:15:20;;;;;;;;;16.33;15.00;;;;;34.29;22.27;101893.06;5074905;27;45507;-81
2022/05/08 00:17:46;;;;;;;;;18.67;17.00;;;;;34.08;22.53;101850.28;5074846;27;45395;-81
2022/05/08 00:20:12;;;;;;;;;19.33;17.67;;;;;34.06;22.85;101853.16;5074935;27;45526;-82
2022/05/08 00:22:43;;;;;;;;;19.67;18.00;;;;;34.07;22.68;101865.06;5073768;28;45620;-82
2022/05/08 00:25:09;;;;;;;;;19.00;18.33;;;;;33.95;22.71;101859.34;5072758;28;47173;-82
2022/05/08 00:27:34;;;;;;;;;22.33;22.00;;;;;34.06;22.87;101874.31;5073609;28;45711;-82
2022/05/08 00:30:01;;;;;;;;;21.33;21.33;;;;;33.61;23.46;101824.75;5074668;27;45338;-82
2022/05/08 00:32:26;;;;;;;;;21.33;21.33;;;;;33.78;22.97;101848.50;5074956;27;45409;-82
2022/05/08 00:34:52;;;;;;;;;22.00;21.00;;;;;33.43;23.16;101794.66;5073245;28;47987;-82
2022/05/08 00:37:18;;;;;;;;;14.00;14.00;;;;;33.71;23.04;101853.44;5075052;27;45372;-82
2022/05/08 00:39:43;;;;;;;;;20.00;18.33;;;;;33.32;23.51;101792.53;5074640;27;45422;-82
2022/05/08 00:42:09;;;;;;;;;19.33;18.00;;;;;33.90;23.21;101864.25;5074885;27;45422;-82
2022/05/08 00:44:35;;;;;;;;;21.00;20.00;;;;;33.76;23.26;101865.09;5074612;27;45505;-82
2022/05/08 00:47:00;;;;;;;;;22.67;18.00;;;;;33.83;23.24;101871.13;5074633;28;45414;-82
2022/05/08 00:49:25;;;;;;;;;20.00;19.33;;;;;33.65;23.15;101853.84;5076939;28;45457;-82
2022/05/08 00:51:51;;;;;;;;;20.67;18.67;;;;;33.66;22.96;101866.63;5076895;28;45573;-82
2022/05/08 00:54:17;;;;;;;;;21.00;19.00;;;;;33.53;23.22;101854.59;5075975;28;47179;-82
2022/05/08 00:56:43;;;;;;;;;21.67;18.00;;;;;33.45;23.49;101855.94;5077990;27;45392;-82
2022/05/08 00:59:09;;;;;;;;;19.00;18.00;;;;;33.13;23.58;101806.47;5076313;28;45401;-82
2022/05/08 01:01:35;;;;;;;;;20.33;18.67;;;;;33.48;23.66;101875.00;5078016;27;45359;-81
2022/05/08 01:04:00;;;;;;;;;19.33;19.33;;;;;33.34;23.41;101873.09;5077629;27;45498;-81
2022/05/08 01:06:26;;;;;;;;;19.33;17.00;;;;;33.38;23.61;101878.44;5076423;28;45439;-81
2022/05/08 01:08:52;;;;;;;;;23.33;22.33;;;;;33.21;23.45;101857.38;5077502;28;45419;-82
2022/05/08 01:11:18;;;;;;;;;17.33;17.00;;;;;33.24;23.68;101882.00;5076531;28;45369;-82
2022/05/08 01:13:45;;;;;;;;;20.33;18.00;;;;;33.13;23.49;101886.22;5076317;28;48286;-82
2022/05/08 01:16:17;;;;;;;;;18.00;17.00;;;;;33.04;23.47;101888.59;5077411;27;45323;-81
2022/05/08 01:18:44;;;;;;;;;17.00;17.00;;;;;32.97;24.13;101888.09;5078025;27;45216;-82
2022/05/08 01:21:22;;;;;;;;;20.00;17.67;;;;;32.71;24.11;101853.88;5076150;28;45348;-81
2022/05/08 01:23:47;;;;;;;;;16.33;16.33;;;;;32.39;24.37;101813.50;5076090;28;47308;-80
2022/05/08 01:26:20;;;;;;;;;21.33;19.33;;;;;32.80;24.68;101867.97;5077176;27;45408;-81
2022/05/08 01:28:45;;;;;;;;;16.33;16.33;;;;;32.70;23.88;101844.75;5076457;28;45379;-82
2022/05/08 01:31:10;;;;;;;;;21.00;19.00;;;;;32.69;24.13;101822.81;5077285;27;45500;-82
2022/05/08 01:33:36;;;;;;;;;18.67;17.67;;;;;32.66;24.22;101811.00;5076126;28;51988;-82
2022/05/08 01:36:01;;;;;;;;;17.00;15.67;;;;;32.43;24.11;101811.44;5077479;27;45481;-82
2022/05/08 01:38:26;;;;;;;;;20.33;17.67;;;;;32.61;24.21;101842.47;5075853;28;45462;-82
2022/05/08 01:40:52;;;;;;;;;13.33;13.33;;;;;32.42;24.29;101801.41;5076183;28;45408;-82
2022/05/08 01:43:17;;;;;;;;;15.00;15.00;;;;;32.64;23.88;101845.94;5077186;27;49383;-82
2022/05/08 01:45:43;;;;;;;;;18.00;16.00;;;;;32.65;24.45;101871.56;5077138;27;45460;-82
2022/05/08 01:48:25;;;;;;;;;16.67;16.67;;;;;32.83;24.54;101880.66;5075926;28;45865;-82
2022/05/08 01:50:53;;;;;;;;;14.33;14.33;;;;;32.79;23.89;101879.03;5077466;27;45331;-82
2022/05/08 01:53:20;;;;;;;;;20.33;18.67;;;;;32.61;24.39;101853.47;5074937;28;48309;-83
2022/05/08 01:55:49;;;;;;;;;16.33;16.00;;;;;32.54;24.04;101833.69;5077023;27;45350;-81
2022/05/08 01:58:18;;;;;;;;;20.00;18.00;;;;;32.42;24.16;101815.16;5075754;27;45448;-82
2022/05/08 02:00:44;;;;;;;;;21.00;19.00;;;;;32.72;24.73;101875.75;5077184;27;45450;-82
2022/05/08 02:03:10;;;;;;;;;24.00;22.00;;;;;32.70;24.06;101863.06;5075469;28;47868;-81
2022/05/08 02:05:39;;;;;;;;;21.67;18.67;;;;;32.57;24.17;101865.59;5077003;27;45334;-82
2022/05/08 02:08:04;;;;;;;;;24.00;23.00;;;;;32.39;24.56;101829.06;5075602;28;45447;-82
2022/05/08 02:10:30;;;;;;;;;19.00;17.33;;;;;32.50;24.41;101848.56;5076858;27;45627;-82
2022/05/08 02:12:55;;;;;;;;;20.33;19.67;;;;;32.70;24.35;101882.31;5075393;28;47358;-82
2022/05/08 02:15:21;;;;;;;;;17.33;17.33;;;;;32.72;23.92;101875.75;5075428;28;45970;-81
2022/05/08 02:17:46;;;;;;;;;22.67;20.67;;;;;32.23;24.09;101807.97;5076936;27;45434;-82
2022/05/08 02:20:11;;;;;;;;;22.67;18.33;;;;;32.23;23.92;101807.09;5076294;27;45390;-81
2022/05/08 02:22:37;;;;;;;;;24.00;19.67;;;;;32.38;24.50;101850.16;5075486;28;46897;-81
2022/05/08 02:25:07;;;;;;;;;26.00;22.67;;;;;32.55;24.25;101878.56;5076440;27;45412;-81
2022/05/08 02:27:40;;;;;;;;;21.00;20.67;;;;;32.45;24.05;101848.84;5076902;27;45452;-81
2022/05/08 02:30:11;;;;;;;;;21.67;21.33;;;;;32.35;24.61;101844.84;5075177;28;45612;-81
2022/05/08 02:32:37;;;;;;;;;22.67;22.67;;;;;32.32;24.18;101837.66;5075076;28;48409;-81
2022/05/08 02:35:06;;;;;;;;;28.00;23.00;;;;;32.35;24.73;101849.44;5074527;28;45743;-81
2022/05/08 02:37:31;;;;;;;;;23.67;23.67;;;;;32.39;24.33;101867.53;5076599;27;45419;-80
2022/05/08 02:39:57;;;;;;;;;22.67;19.67;;;;;32.25;24.69;101865.53;5076577;28;45393;-81
2022/05/08 02:42:22;;;;;;;;;24.33;22.67;;;;;32.17;24.34;101855.00;5075881;27;46325;-81
2022/05/08 02:44:47;;;;;;;;;26.00;24.33;;;;;31.70;24.77;101787.97;5076536;27;45358;-81
2022/05/08 02:47:13;;;;;;;;;23.00;21.67;;;;;32.13;24.83;101870.72;5074756;28;45401;-81
2022/05/08 02:49:38;;;;;;;;;28.67;25.67;;;;;31.86;24.86;101820.06;5076063;28;45420;-82
2022/05/08 02:52:04;;;;;;;;;26.00;23.00;;;;;31.68;24.82;101811.84;5076240;27;45324;-81
2022/05/08 02:54:29;;;;;;;;;26.67;22.67;;;;;31.72;25.12;101818.94;5075967;27;45425;-81
2022/05/08 02:59:38;;;;;;;;;24.33;23.33;;;;;32.19;24.61;101854.91;5076041;28;45268;-82
2022/05/08 03:02:04;;;;;;;;;26.67;26.00;;;;;32.09;24.83;101868.22;5075951;27;45374;-82
2022/05/08 03:04:29;;;;;;;;;28.00;27.00;;;;;31.67;24.99;101821.03;5074433;28;45664;-81
2022/05/08 03:06:55;;;;;;;;;25.67;23.33;;;;;32.00;24.80;101872.34;5076283;27;45498;-81
2022/05/08 03:09:20;;;;;;;;;26.33;24.33;;;;;32.05;25.20;101892.19;5075404;27;45620;-82
2022/05/08 03:11:45;;;;;;;;;20.67;19.00;;;;;31.89;25.45;101888.50;5075885;27;46184;-82
2022/05/08 03:14:11;;;;;;;;;28.00;26.33;;;;;31.86;25.31;101863.97;5075910;27;45400;-81
2022/05/08 03:16:37;;;;;;;;;21.00;21.00;;;;;31.61;25.50;101819.50;5076098;27;45393;-81
2022/05/08 03:19:02;;;;;;;;;26.33;22.67;;;;;31.80;25.20;101848.69;5075685;27;45649;-81
2022/05/08 03:21:27;;;;;;;;;27.67;26.00;;;;;31.55;25.30;101830.78;5074294;28;47088;-81
2022/05/08 03:23:53;;;;;;;;;27.33;24.67;;;;;31.77;24.97;101885.44;5074509;28;45358;-81
2022/05/08 03:26:19;;;;;;;;;31.00;26.67;;;;;31.49;24.96;101842.09;5075842;27;45394;-82
2022/05/08 03:28:45;;;;;;;;;30.00;29.33;;;;;31.58;25.68;101870.91;5075898;27;45548;-81
2022/05/08 03:31:12;;;;;;;;;28.00;27.33;;;;;31.43;26.00;101850.59;5075443;27;45523;-81
2022/05/08 03:33:38;;;;;;;;;31.00;30.33;;;;;31.66;25.42;101889.69;5075056;28;45544;-82
2022/05/08 03:36:05;;;;;;;;;33.33;30.33;;;;;31.75;25.66;101897.47;5075767;27;45238;-81
2022/05/08 03:38:31;;;;;;;;;30.33;29.67;;;;;31.76;25.17;101899.25;5074177;28;45465;-81
2022/05/08 03:40:56;;;;;;;;;33.33;30.67;;;;;31.67;25.51;101881.38;5075326;27;45463;-81
2022/05/08 03:43:23;;;;;;;;;42.67;33.33;;;;;31.50;25.28;101857.53;5075278;27;45371;-81
2022/05/08 03:45:49;;;;;;;;;38.33;34.00;;;;;31.48;25.59;101870.47;5075710;28;45488;-81
2022/05/08 03:48:15;;;;;;;;;29.00;26.67;;;;;31.57;25.75;101882.81;5075044;27;45493;-81
2022/05/08 03:50:40;;;;;;;;;42.67;34.67;;;;;31.64;25.51;101892.53;5073995;28;47287;-81
2022/05/08 03:53:06;;;;;;;;;39.67;34.00;;;;;31.41;25.94;101855.31;5073475;28;50851;-86
2022/05/08 03:55:31;;;;;;;;;38.33;31.00;;;;;31.38;25.43;101861.81;5075622;27;45891;-83
2022/05/08 03:57:57;;;;;;;;;38.67;32.00;;;;;31.43;25.44;101865.19;5074146;28;45603;-86
2022/05/08 04:00:22;;;;;;;;;42.00;36.00;;;;;31.56;25.86;101872.81;5073494;28;46909;-85
2022/05/08 04:02:47;;;;;;;;;34.33;29.67;;;;;31.43;26.00;101846.00;5075170;27;45372;-84
2022/05/08 04:05:13;;;;;;;;;38.00;34.67;;;;;31.56;25.38;101856.34;5073870;28;45586;-85
2022/05/08 04:07:39;;;;;;;;;42.00;35.67;;;;;31.54;25.66;101856.41;5075232;28;45464;-85
2022/05/08 04:10:05;;;;;;;;;45.00;36.00;;;;;31.73;25.58;101902.13;5073605;28;47502;-85
2022/05/08 04:12:31;;;;;;;;;39.67;35.00;;;;;31.72;25.54;101889.41;5073398;28;46084;-85
2022/05/08 04:14:56;;;;;;;;;42.67;37.00;;;;;31.69;25.62;101879.47;5073747;28;45431;-85
2022/05/08 04:17:21;;;;;;;;;41.00;35.00;;;;;31.52;25.73;101872.09;5073584;28;45406;-87
2022/05/08 04:19:47;;;;;;;;;43.67;37.00;;;;;31.33;25.41;101855.69;5073776;28;48237;-84
2022/05/08 04:24:57;;;;;;;;;43.00;35.00;;;;;31.53;25.47;101867.47;5078661;28;45408;-85
2022/05/08 04:27:23;;;;;;;;;39.67;34.33;;;;;31.41;25.64;101858.91;5078404;28;45626;-85
2022/05/08 04:29:48;;;;;;;;;40.00;35.33;;;;;31.63;25.45;101909.94;5077158;28;48391;-85
2022/05/08 04:32:14;;;;;;;;;42.00;36.33;;;;;31.76;25.91;101904.75;5077815;27;45396;-84
2022/05/08 04:34:39;;;;;;;;;46.67;39.00;;;;;31.47;25.43;101861.34;5078423;27;45456;-84
2022/05/08 04:37:05;;;;;;;;;47.00;38.67;;;;;31.22;25.80;101820.56;5078423;27;45494;-85
2022/05/08 04:39:30;;;;;;;;;50.33;39.33;;;;;31.24;26.11;101829.63;5076668;28;47203;-85
2022/05/08 04:41:55;;;;;;;;;47.00;39.33;;;;;31.09;25.42;101817.59;5077381;28;45868;-86
2022/05/08 04:44:21;;;;;;;;;49.00;38.00;;;;;31.22;25.52;101831.53;5077000;28;45304;-85
2022/05/08 04:46:47;;;;;;;;;47.00;39.00;;;;;31.44;25.36;101857.88;5078140;27;45243;-84
2022/05/08 04:49:13;;;;;;;;;49.00;38.33;;;;;31.66;25.24;101882.38;5077746;27;46042;-84
2022/05/08 04:51:38;;;;;;;;;51.67;37.33;;;;;31.76;25.34;101888.28;5076701;28;45397;-85
2022/05/08 04:54:03;;;;;;;;;53.67;43.00;;;;;31.22;25.68;101836.16;5076568;28;47517;-85
2022/05/08 04:56:30;;;;;;;;;49.00;39.33;;;;;31.32;25.89;101869.47;5076851;28;45307;-85
2022/05/08 04:58:55;;;;;;;;;44.00;36.00;;;;;31.66;25.72;101929.03;5077805;27;45424;-84
2022/05/08 05:01:21;;;;;;;;;50.67;38.67;;;;;31.61;25.42;101903.66;5077636;27;45527;-83
2022/05/08 05:03:47;;;;;;;;;51.67;42.00;;;;;31.79;25.71;101934.75;5078066;28;45458;-85
2022/05/08 05:06:12;;;;;;;;;44.00;35.67;;;;;31.53;25.54;101889.41;5077931;27;45576;-85
2022/05/08 05:08:38;;;;;;;;;47.33;40.00;;;;;31.70;25.09;101911.44;5076449;28;47944;-85
2022/05/08 05:11:08;;;;;;;;;47.67;37.33;;;;;31.63;25.62;101883.41;5077915;27;45470;-86
2022/05/08 05:13:34;;;;;;;;;48.00;38.33;;;;;32.11;25.17;101951.34;5076401;28;45483;-81
2022/05/08 05:15:59;;;;;;;;;47.00;39.33;;;;;31.89;25.66;101935.16;5077576;28;45415;-85
2022/05/08 05:18:24;;;;;;;;;50.33;41.00;;;;;31.67;25.40;101917.06;5076132;28;48045;-84
2022/05/08 05:20:49;;;;;;;;;49.00;39.67;;;;;31.78;25.37;101950.31;5077716;28;45442;-85
2022/05/08 05:23:15;;;;;;;;;51.33;39.67;;;;;31.30;25.92;101881.41;5076726;28;45829;-86
2022/05/08 05:25:40;;;;;;;;;51.67;39.00;;;;;31.58;25.64;101936.75;5076359;28;45470;-83
2022/05/08 05:28:06;;;;;;;;;52.00;41.33;;;;;31.63;25.90;101956.59;5076184;28;47433;-83
2022/05/08 05:30:31;;;;;;;;;49.67;40.00;;;;;31.43;26.14;101932.88;5076895;27;45369;-84
2022/05/08 05:32:56;;;;;;;;;48.00;39.00;;;;;31.36;26.18;101917.72;5077427;27;45309;-84
2022/05/08 05:35:22;;;;;;;;;49.33;40.00;;;;;31.66;25.71;101961.94;5076002;28;45324;-84
2022/05/08 05:37:47;;;;;;;;;50.67;40.33;;;;;31.74;25.75;101951.44;5075928;28;46983;-84
2022/05/08 05:40:12;;;;;;;;;49.67;40.67;;;;;31.86;25.35;101940.81;5077508;27;45388;-82
2022/05/08 05:42:38;;;;;;;;;49.33;40.00;;;;;31.98;25.30;101960.25;5077467;27;45370;-84
2022/05/08 05:45:04;;;;;;;;;43.67;36.33;;;;;31.99;25.60;101964.75;5075664;28;45461;-79
2022/05/08 05:50:13;;;;;;;;;48.00;39.00;;;;;31.85;25.79;101939.03;5075785;28;45381;-85
2022/05/08 05:52:38;;;;;;;;;48.33;39.33;;;;;31.94;25.34;101955.00;5075483;28;45416;-85
2022/05/08 05:55:06;;;;;;;;;46.00;37.00;;;;;31.76;25.63;101954.13;5075945;28;45471;-84
2022/05/08 05:57:35;;;;;;;;;49.67;42.00;;;;;31.32;25.39;101891.41;5075348;28;47173;-87
2022/05/08 06:00:01;;;;;;;;;47.00;38.00;;;;;31.46;26.13;101933.63;5075364;27;45417;-82
2022/05/08 06:02:26;;;;;;;;;51.00;40.00;;;;;31.82;26.17;101986.72;5076376;28;45469;-83
2022/05/08 06:04:51;;;;;;;;;49.00;39.00;;;;;31.88;25.69;101988.25;5075561;28;45448;-84
2022/05/08 06:07:17;;;;;;;;;46.00;39.00;;;;;31.72;26.03;101979.94;5076856;27;45405;-85
2022/05/08 06:09:42;;;;;;;;;45.00;37.00;;;;;31.64;25.94;101986.72;5076204;27;45439;-84
2022/05/08 06:12:07;;;;;;;;;47.67;39.33;;;;;31.45;25.90;101958.41;5077227;27;45384;-84
2022/05/08 06:14:33;;;;;;;;;48.00;39.00;;;;;31.73;25.73;101978.94;5075080;28;45560;-84
2022/05/08 06:16:58;;;;;;;;;49.33;39.00;;;;;31.71;25.82;101972.66;5076628;28;45479;-83
2022/05/08 06:19:23;;;;;;;;;48.33;39.33;;;;;31.54;25.80;101937.84;5074477;27;45496;-87
2022/05/08 06:21:49;;;;;;;;;47.67;39.33;;;;;31.94;25.54;101980.59;5057322;28;45429;-88
2022/05/08 06:24:15;;;;;;;;;47.67;39.00;;;;;31.79;25.91;101974.03;5064058;28;45469;-87
2022/05/08 06:26:40;;;;;;;;;48.33;39.00;;;;;31.57;25.72;101957.75;5074763;28;48059;-88
2022/05/08 06:29:05;;;;;;;;;52.00;41.33;;;;;31.38;25.95;101937.69;5074743;28;45363;-89
2022/05/08 06:31:31;;;;;;;;;45.67;39.00;;;;;31.24;26.19;101932.94;5078547;27;45311;-91
2022/05/08 06:33:56;;;;;;;;;47.33;37.67;;;;;31.53;25.92;101956.13;5070826;28;45390;-87
2022/05/08 06:36:22;;;;;;;;;51.67;41.33;;;;;31.65;26.03;101965.63;5074921;28;47466;-89
2022/05/08 06:38:47;;;;;;;;;50.67;41.00;;;;;31.26;25.66;101920.91;5076214;27;45435;-88
2022/05/08 06:41:13;;;;;;;;;51.00;41.00;;;;;31.46;25.93;101961.06;5075180;28;45995;-89
2022/05/08 06:43:40;;;;;;;;;51.00;42.00;;;;;31.47;25.71;101940.88;5075137;28;45533;-88
2022/05/08 06:46:09;;;;;;;;;55.67;43.00;;;;;31.83;26.22;101984.84;5075905;27;45558;-85
2022/05/08 06:48:35;;;;;;;;;49.00;41.33;;;;;32.01;25.57;101986.66;5075750;27;45461;-86
2022/05/08 06:51:02;;;;;;;;;48.33;37.33;;;;;31.80;25.37;101942.91;5073403;27;45514;-88
2022/05/08 06:53:27;;;;;;;;;53.00;42.00;;;;;31.86;25.74;101946.31;5080480;27;45594;-85
2022/05/08 06:55:53;;;;;;;;;49.67;39.33;;;;;32.17;25.34;102000.50;5062484;28;47176;-87
2022/05/08 06:58:20;;;;;;;;;44.33;37.00;;;;;31.88;24.96;101934.25;5058642;28;46207;-82
2022/05/08 07:03:32;;;;;;;;;47.00;37.67;;;;;31.87;25.46;101948.97;5069580;28;45518;-85
2022/05/08 07:06:00;;;;;;;;;56.33;44.33;;;;;32.19;25.28;102025.13;5065992;28;48327;-87
2022/05/08 07:08:26;;;;;;;;;51.33;43.00;;;;;31.80;26.17;101970.34;5068621;28;45492;-87
2022/05/08 07:10:51;;;;;;;;;49.00;40.67;;;;;32.05;25.74;102023.94;5056496;27;45489;-88
2022/05/08 07:13:17;;;;;;;;;51.00;41.67;;;;;31.77;26.09;101973.25;5057171;28;45622;-85
2022/05/08 07:15:42;;;;;;;;;54.33;42.00;;;;;31.93;25.86;102030.97;5054283;28;48181;-85
2022/05/08 07:18:08;;;;;;;;;49.67;40.67;;;;;31.81;25.73;101988.59;5055234;28;45570;-85
2022/05/08 07:20:34;;;;;;;;;50.67;38.67;;;;;32.02;26.10;102013.13;5066745;28;45460;-83
2022/05/08 07:22:59;;;;;;;;;55.33;42.67;;;;;32.34;25.87;102028.94;5050441;28;45323;-84
2022/05/08 07:25:25;;;;;;;;;54.00;43.00;;;;;32.12;25.35;101956.78;5060756;28;45492;-84
2022/05/08 07:27:51;;;;;;;;;49.33;40.67;;;;;32.18;25.51;101984.91;5054131;28;45504;-83
2022/05/08 07:30:18;;;;;;;;;55.00;40.33;;;;;32.19;25.32;101997.69;5055410;28;45553;-82
2022/05/08 07:32:44;;;;;;;;;53.33;42.33;;;;;32.03;25.49;102000.31;5058835;28;45667;-79
2022/05/08 07:37:54;;;;;;;;;50.67;40.00;;;;;31.97;25.26;101998.78;5059505;28;45448;-79
2022/05/08 07:40:19;;;;;;;;;53.33;41.00;;;;;32.04;25.62;102013.97;5050300;28;45489;-83
2022/05/08 07:42:45;;;;;;;;;50.00;39.67;;;;;31.98;25.53;101997.78;5051529;28;45548;-81
2022/05/08 07:45:10;;;;;;;;;50.00;41.00;;;;;32.05;25.64;101991.00;5050730;28;48364;-85
2022/05/08 07:47:35;;;;;;;;;51.00;42.00;;;;;32.20;25.77;102038.78;5059269;28;45683;-85
2022/05/08 07:50:00;;;;;;;;;46.67;36.67;;;;;32.28;25.31;102039.28;5068993;28;46105;-83
2022/05/08 07:52:26;;;;;;;;;51.33;39.67;;;;;32.36;25.66;102037.97;5062365;27;45370;-85
2022/05/08 07:54:52;;;;;;;;;49.00;39.00;;;;;32.06;25.41;102005.63;5053622;28;45467;-84
2022/05/08 07:57:17;;;;;;;;;54.33;42.33;;;;;31.95;25.34;101995.22;5064215;27;45414;-86
2022/05/08 07:59:43;;;;;;;;;51.00;42.67;;;;;32.32;25.25;102018.91;5056446;28;45755;-79
2022/05/08 08:02:08;;;;;;;;;49.33;40.00;;;;;32.36;25.39;101999.53;5072717;28;45602;-79
2022/05/08 08:04:34;;;;;;;;;48.33;38.33;;;;;32.44;25.15;101984.41;5064751;27;46294;-78
2022/05/08 08:07:01;;;;;;;;;47.33;37.67;;;;;32.73;25.03;102031.44;5062739;27;45744;-76
2022/05/08 08:09:26;;;;;;;;;52.00;41.33;;;;;32.67;25.07;102043.59;5053296;28;45587;-82
2022/05/08 08:11:53;;;;;;;;;48.00;40.00;;;;;32.74;25.13;102032.31;5063496;28;45556;-77
2022/05/08 08:14:19;;;;;;;;;48.00;39.33;;;;;32.93;25.04;102063.31;5055848;28;46251;-82
2022/05/08 08:16:45;;;;;;;;;51.33;40.67;;;;;32.67;24.78;102023.47;5062599;28;45716;-81
2022/05/08 08:19:10;;;;;;;;;50.33;40.00;;;;;32.92;24.80;102052.41;5061513;28;45548;-83
2022/05/08 08:21:36;;;;;;;;;50.33;41.00;;;;;32.67;24.54;102032.63;5052827;28;45582;-81
2022/05/08 08:24:01;;;;;;;;;51.33;42.00;;;;;32.44;24.61;101989.88;5056609;28;47113;-81
2022/05/08 08:26:26;;;;;;;;;56.33;42.67;;;;;32.71;24.87;102057.22;5057683;28;45409;-80
2022/05/08 08:28:52;;;;;;;;;48.67;38.33;;;;;32.39;24.92;102003.00;5063704;28;45514;-81
2022/05/08 08:31:17;;;;;;;;;48.33;41.00;;;;;32.86;25.04;102050.88;5060603;27;45421;-80
2022/05/08 08:33:44;;;;;;;;;48.67;38.00;;;;;32.61;24.21;101988.09;5076458;27;47069;-81
2022/05/08 08:36:11;;;;;;;;;46.67;38.33;;;;;32.82;24.92;102063.88;5054617;28;45556;-81
2022/05/08 08:38:37;;;;;;;;;46.00;38.00;;;;;32.80;25.00;102052.09;5059388;28;45484;-82
2022/05/08 08:41:04;;;;;;;;;50.33;39.67;;;;;32.67;24.80;101996.91;5069095;28;45601;-83
2022/05/08 08:47:42;;;;;;;;;50.00;41.00;;;;;33.13;24.82;102059.44;5051807;28;47966;-78
2022/05/08 08:49:02;;;;;;;;;52.33;40.33;;;;;33.23;24.41;102035.09;5067711;28;45423;-84
2022/05/08 08:51:28;;;;;;;;;48.00;37.67;;;;;33.44;24.12;102051.34;5056736;28;45413;-89
2022/05/08 08:53:55;;;;;;;;;50.00;41.00;;;;;33.71;23.87;102057.09;5067055;27;45981;-79
2022/05/08 08:56:22;;;;;;;;;48.00;39.33;;;;;33.35;23.40;101986.75;5062322;27;45521;-84
2022/05/08 08:58:47;;;;;;;;;48.33;39.00;;;;;33.69;23.90;102056.31;5052269;28;45536;-77
2022/05/08 09:01:16;;;;;;;;;41.33;35.00;;;;;33.53;23.57;102048.09;5053177;28;45889;-80
2022/05/08 09:03:41;;;;;;;;;46.67;38.67;;;;;33.61;23.60;102020.97;5056028;28;46439;-78
2022/05/08 09:06:08;;;;;;;;;45.00;37.00;;;;;33.70;23.66;102008.56;5052760;28;45416;-84
2022/05/08 09:08:36;;;;;;;;;45.00;38.00;;;;;33.71;24.00;101996.56;5067113;28;45412;-84
2022/05/08 09:11:02;;;;;;;;;49.00;40.00;;;;;34.00;23.43;102016.00;5062062;28;46056;-84
2022/05/08 09:13:30;;;;;;;;;47.33;37.67;;;;;33.90;23.70;102012.91;5069419;28;47354;-82
2022/05/08 09:16:07;;;;;;;;;41.67;36.00;;;;;34.16;23.06;102040.72;5081100;27;45876;-83
2022/05/08 09:18:46;;;;;;;;;48.67;39.00;;;;;33.93;23.42;101998.06;5059130;28;45411;-83
2022/05/08 09:24:09;;;;;;;;;50.67;41.00;;;;;33.98;23.60;102013.34;5058601;28;45780;-75
2022/05/08 09:26:36;;;;;;;;;48.00;40.33;;;;;34.16;23.42;102041.63;5052394;28;45513;-85
2022/05/08 09:29:03;;;;;;;;;44.00;37.67;;;;;34.18;23.28;102033.28;5061765;28;45590;-80
2022/05/08 09:31:38;;;;;;;;;47.67;37.00;;;;;34.05;23.47;102033.13;5072442;27;45537;-75
2022/05/08 09:34:03;;;;;;;;;44.33;35.67;;;;;34.29;23.42;102038.13;5072102;27;45388;-74
2022/05/08 09:36:29;;;;;;;;;47.33;40.33;;;;;34.49;23.10;102035.03;5071095;27;45492;-72
2022/05/08 09:38:59;;;;;;;;;49.00;40.33;;;;;34.54;23.39;102051.28;5070181;27;45436;-69
2022/05/08 09:41:29;;;;;;;;;49.67;40.33;;;;;34.45;23.09;102046.38;5062502;27;45472;-86
2022/05/08 09:44:08;;;;;;;;;50.33;41.00;;;;;34.24;23.31;102032.00;5061394;28;47337;-82
2022/05/08 09:46:38;;;;;;;;;38.33;32.00;;;;;33.99;23.45;102036.25;5070992;28;45520;-81
2022/05/08 09:49:06;;;;;;;;;50.00;38.67;;;;;34.27;23.62;102051.09;5071610;27;45430;-77
2022/05/08 09:51:33;;;;;;;;;49.33;39.67;;;;;34.61;23.28;102049.91;5058766;28;45481;-71
2022/05/08 09:53:59;;;;;;;;;47.33;37.67;;;;;34.71;23.17;102041.94;5066165;28;46083;-71
2022/05/08 09:56:25;;;;;;;;;46.67;39.33;;;;;34.76;23.08;102030.66;5052101;27;45540;-72
2022/05/08 09:58:50;;;;;;;;;47.33;39.67;;;;;34.64;22.83;102043.31;5059771;28;45539;-70
2022/05/08 10:01:16;;;;;;;;;51.67;41.00;;;;;34.60;23.09;102041.75;5060132;28;45469;-69
2022/05/08 10:03:43;;;;;;;;;52.67;42.33;;;;;34.65;23.15;102047.88;5062719;28;47293;-69
2022/05/08 10:06:09;;;;;;;;;47.33;39.00;;;;;34.59;23.64;102042.75;5065885;28;45535;-71
2022/05/08 10:08:39;;;;;;;;;49.33;41.67;;;;;34.52;23.12;102034.84;5060230;28;45366;-75
2022/05/08 10:13:53;;;;;;;;;51.67;41.33;;;;;34.85;22.74;102038.34;5076738;28;45779;-83
2022/05/08 10:16:45;;;;;;;;;44.33;37.67;;;;;35.04;22.76;102043.59;5075461;28;45851;-83
2022/05/08 10:21:55;;;;;;;;;47.67;40.33;;;;;35.27;22.42;102036.56;5067042;27;45472;-85
2022/05/08 10:24:31;;;;;;;;;46.00;38.00;;;;;35.16;22.42;101982.13;5056277;28;45385;-82
2022/05/08 10:27:21;;;;;;;;;49.00;40.33;;;;;35.21;22.41;102013.03;5054740;28;45393;-82
2022/05/08 10:29:49;;;;;;;;;51.67;42.33;;;;;35.53;22.38;102040.38;5050179;28;45666;-82
2022/05/08 10:32:33;;;;;;;;;48.67;41.00;;;;;35.54;22.17;102027.47;5056382;28;45322;-81
2022/05/08 10:35:19;;;;;;;;;49.67;41.67;;;;;35.20;22.50;102038.84;5054378;28;46047;-82
2022/05/08 10:38:07;;;;;;;;;49.00;39.00;;;;;35.20;22.41;102030.56;5056057;28;45465;-82
2022/05/08 10:40:34;;;;;;;;;46.00;37.33;;;;;35.27;22.07;102019.13;5048322;28;45391;-82
2022/05/08 10:43:12;;;;;;;;;50.33;39.33;;;;;35.21;22.46;102032.31;5054681;28;45456;-82
2022/05/08 10:45:41;;;;;;;;;47.00;38.67;;;;;35.06;22.29;101978.16;5054177;28;46734;-82
2022/05/08 10:48:08;;;;;;;;;44.00;34.00;;;;;35.44;22.24;102023.56;5055700;28;45324;-82
2022/05/08 10:50:34;;;;;;;;;46.00;37.67;;;;;35.30;22.76;101999.59;5055880;28;45366;-82
2022/05/08 10:52:59;;;;;;;;;46.33;38.33;;;;;35.43;22.45;102017.16;5054102;28;45545;-82
2022/05/08 10:55:26;;;;;;;;;50.33;40.33;;;;;35.46;22.02;102013.28;5057885;28;46300;-81
2022/05/08 10:57:52;;;;;;;;;49.33;40.00;;;;;35.54;22.33;101995.25;5076068;27;45404;-82
2022/05/08 11:00:19;;;;;;;;;48.67;39.00;;;;;35.68;22.56;102018.25;5074645;28;45327;-82
2022/05/08 11:02:56;;;;;;;;;48.00;37.67;;;;;35.80;22.23;102020.19;5075738;27;45476;-82
2022/05/08 11:05:26;;;;;;;;;48.67;39.00;;;;;35.71;21.97;102015.28;5055575;28;46325;-81
2022/05/08 11:08:14;;;;;;;;;48.67;39.67;;;;;35.79;21.91;102018.41;5058539;28;45399;-82
2022/05/08 11:10:41;;;;;;;;;46.67;38.33;;;;;35.94;21.91;102001.84;5054966;28;45421;-83
2022/05/08 11:13:15;;;;;;;;;47.33;39.67;;;;;35.97;21.65;102023.72;5071146;28;45343;-82
2022/05/08 11:15:40;;;;;;;;;43.00;37.00;;;;;35.78;21.64;102027.69;5070701;28;46199;-82
2022/05/08 11:18:09;;;;;;;;;49.33;38.33;;;;;35.86;21.74;102016.16;5070875;28;45828;-82
2022/05/08 11:20:59;;;;;;;;;48.00;39.33;;;;;35.75;22.02;102019.59;5070722;28;45482;-82
2022/05/08 11:23:30;;;;;;;;;50.00;39.67;;;;;35.64;21.94;102016.69;5045404;28;45547;-82
2022/05/08 11:25:58;;;;;;;;;41.67;35.33;;;;;35.66;22.09;102011.97;5053992;28;47837;-82
2022/05/08 11:28:25;;;;;;;;;49.67;41.67;;;;;35.91;22.05;102015.81;5055210;28;45359;-82
2022/05/08 11:30:52;;;;;;;;;44.33;38.67;;;;;35.91;21.39;101977.16;5055047;28;45474;-81
2022/05/08 11:36:05;;;;;;;;;46.00;38.67;;;;;36.21;21.51;102015.56;5055240;28;45690;-82